Time;durP1;ratioP1;P1;durP2;ratioP2;P2;SDS_P1;SDS_P2;PMS_P1;PMS_P2;Temp;Humidity;BMP_temperature;BMP_pressure;BME280_temperature;BME280_humidity;BME280_pressure;Samples;Min_cycle;Max_cycle;Signal;HPM_P1;HPM_P2
2022/12/17 13:06:47;;;;;;;24.77;15.97;;;;;;;6.96;56.52;102704.31;4968657;28;20863;-76
2022/12/17 13:09:22;;;;;;;22.47;16.17;;;;;;;7.17;56.79;102703.09;4966948;28;20208;-76
2022/12/17 13:12:03;;;;;;;20.70;15.30;;;;;;;7.59;54.82;102700.66;4966414;28;20192;-75
2022/12/17 13:14:43;;;;;;;23.73;15.50;;;;;;;7.78;54.47;102701.00;4964229;28;20296;-76
2022/12/17 13:17:15;;;;;;;20.53;15.10;;;;;;;6.87;55.45;102698.63;4950322;28;20223;-75
2022/12/17 13:19:44;;;;;;;21.90;16.00;;;;;;;7.76;55.11;102692.34;4966996;28;20196;-75
2022/12/17 13:22:13;;;;;;;21.67;15.10;;;;;;;7.65;54.36;102696.81;4948858;28;20197;-75
2022/12/17 13:24:38;;;;;;;21.70;15.87;;;;;;;7.92;54.22;102684.84;4963630;28;20250;-75
2022/12/17 13:27:05;;;;;;;24.70;15.27;;;;;;;7.91;53.89;102683.97;4972130;28;20291;-76
2022/12/17 13:29:36;;;;;;;19.97;15.03;;;;;;;7.47;54.27;102697.38;4966035;28;20208;-75
2022/12/17 13:32:02;;;;;;;21.90;16.73;;;;;;;7.37;54.67;102695.03;4952739;28;20336;-75
2022/12/17 13:34:45;;;;;;;24.20;16.13;;;;;;;8.04;54.78;102698.31;4964123;28;20200;-74
2022/12/17 13:37:27;;;;;;;21.20;14.97;;;;;;;7.66;54.58;102698.59;4960512;28;20281;-74
2022/12/17 13:40:08;;;;;;;20.27;14.07;;;;;;;7.51;53.80;102699.31;4968616;28;20196;-75
2022/12/17 13:42:35;;;;;;;19.73;14.70;;;;;;;7.59;54.76;102698.09;4967212;28;20291;-74
2022/12/17 13:45:01;;;;;;;20.80;14.67;;;;;;;7.43;54.50;102698.84;4972524;28;20228;-74
2022/12/17 13:47:30;;;;;;;21.13;15.57;;;;;;;7.28;55.82;102707.22;4971537;28;20313;-74
2022/12/17 13:49:58;;;;;;;20.40;14.60;;;;;;;7.30;56.04;102703.97;4966511;28;20654;-74
2022/12/17 13:52:28;;;;;;;20.63;14.77;;;;;;;6.73;56.59;102707.91;4964177;28;20197;-74
2022/12/17 13:55:06;;;;;;;20.67;15.07;;;;;;;6.74;56.83;102717.34;4966886;28;20235;-74
2022/12/17 13:57:31;;;;;;;19.97;14.63;;;;;;;6.25;58.01;102722.53;4960895;28;20228;-74
2022/12/17 14:00:01;;;;;;;20.67;15.10;;;;;;;6.06;58.45;102723.72;4967936;28;20229;-74
2022/12/17 14:02:38;;;;;;;20.90;15.10;;;;;;;6.08;58.49;102725.59;4967961;28;20216;-75
2022/12/17 14:05:06;;;;;;;22.53;14.23;;;;;;;5.84;59.39;102723.06;4965398;28;20207;-74
2022/12/17 14:07:36;;;;;;;23.30;14.97;;;;;;;5.43;60.08;102729.47;4963115;28;20311;-74
2022/12/17 14:10:04;;;;;;;23.47;15.87;;;;;;;5.33;60.55;102727.03;4963431;28;20570;-74
2022/12/17 14:12:33;;;;;;;20.20;14.53;;;;;;;5.14;61.14;102737.56;4965278;28;20658;-74
2022/12/17 14:15:04;;;;;;;19.73;13.83;;;;;;;4.94;61.21;102741.97;4947037;28;20224;-74
2022/12/17 14:17:37;;;;;;;22.47;14.77;;;;;;;4.84;62.47;102754.78;4967424;28;20226;-73
2022/12/17 14:20:05;;;;;;;18.60;14.80;;;;;;;4.62;62.98;102748.91;4961312;28;20201;-74
2022/12/17 14:22:37;;;;;;;20.73;14.40;;;;;;;4.40;63.65;102764.19;4964845;28;20220;-76
2022/12/17 14:25:09;;;;;;;20.63;15.40;;;;;;;4.14;64.94;102760.47;4967377;28;20286;-76
2022/12/17 14:27:39;;;;;;;21.03;14.30;;;;;;;3.74;65.62;102769.22;4945820;28;20232;-75
2022/12/17 14:30:21;;;;;;;21.33;15.03;;;;;;;3.52;66.40;102768.31;4965689;28;20692;-76
2022/12/17 14:32:47;;;;;;;21.30;14.57;;;;;;;3.14;67.43;102772.00;4950318;28;20228;-76
2022/12/17 14:35:32;;;;;;;20.70;14.77;;;;;;;2.83;69.32;102771.94;4958602;28;20197;-75
2022/12/17 14:37:58;;;;;;;19.57;14.77;;;;;;;2.54;69.92;102768.69;4941494;28;20274;-75
2022/12/17 14:40:25;;;;;;;20.07;14.57;;;;;;;2.31;70.98;102773.50;4968381;28;20200;-75
2022/12/17 14:42:57;;;;;;;22.17;15.20;;;;;;;2.14;71.22;102778.78;4962097;28;20888;-75
2022/12/17 14:45:25;;;;;;;24.23;16.30;;;;;;;1.76;72.71;102772.16;4958329;28;20217;-76
2022/12/17 14:47:59;;;;;;;22.40;15.87;;;;;;;1.67;73.88;102774.78;4964249;28;20863;-76
2022/12/17 14:50:31;;;;;;;22.43;14.40;;;;;;;1.63;73.69;102776.91;4958920;28;20188;-75
2022/12/17 14:52:59;;;;;;;27.10;15.50;;;;;;;1.52;74.22;102782.69;4958486;28;20270;-76
2022/12/17 14:55:54;;;;;;;22.33;14.07;;;;;;;1.35;74.41;102781.25;4940473;28;20288;-76
2022/12/17 14:58:21;;;;;;;21.93;15.63;;;;;;;1.26;74.58;102782.06;4966073;28;20278;-76
2022/12/17 15:01:03;;;;;;;21.50;15.33;;;;;;;1.05;74.47;102801.25;4957009;28;20192;-76
2022/12/17 15:03:32;;;;;;;21.40;14.80;;;;;;;0.85;75.42;102791.03;4962633;28;20196;-75
2022/12/17 15:06:05;;;;;;;33.07;21.03;;;;;;;0.76;76.53;102794.38;4952623;28;20328;-75
2022/12/17 15:08:46;;;;;;;27.20;17.50;;;;;;;0.68;76.03;102793.69;4961872;28;20561;-75
2022/12/17 15:11:13;;;;;;;27.47;17.33;;;;;;;0.62;77.14;102792.25;4963500;28;20211;-75
2022/12/17 15:13:39;;;;;;;28.83;18.90;;;;;;;0.43;77.14;102798.16;4965908;28;20192;-75
2022/12/17 15:16:05;;;;;;;34.90;22.00;;;;;;;0.43;76.97;102794.75;4966489;28;20296;-76
2022/12/17 15:18:30;;;;;;;37.43;22.43;;;;;;;0.40;77.80;102798.66;4961943;28;20224;-75
2022/12/17 15:20:56;;;;;;;37.93;23.17;;;;;;;0.23;78.18;102797.97;4956850;28;20273;-76
2022/12/17 15:23:22;;;;;;;23.33;14.93;;;;;;;0.26;77.41;102804.06;4968701;28;20720;-77
2022/12/17 15:25:50;;;;;;;23.23;14.03;;;;;;;0.10;77.76;102810.19;4961242;28;20216;-76
2022/12/17 15:28:17;;;;;;;19.70;13.07;;;;;;;-0.02;78.19;102813.22;4962562;28;20227;-74
2022/12/17 15:30:44;;;;;;;21.37;13.40;;;;;;;-0.18;77.97;102817.59;4960632;28;20255;-74
2022/12/17 15:33:10;;;;;;;22.83;14.13;;;;;;;-0.21;77.84;102815.66;4956079;28;20314;-74
2022/12/17 15:35:37;;;;;;;20.00;13.13;;;;;;;-0.36;78.52;102821.75;4960918;28;20200;-75
2022/12/17 15:38:03;;;;;;;21.30;14.80;;;;;;;-0.52;78.75;102823.59;4957550;28;20224;-76
2022/12/17 15:40:28;;;;;;;24.23;13.43;;;;;;;-0.56;79.68;102828.16;4968775;28;20662;-75
2022/12/17 15:43:12;;;;;;;21.80;14.20;;;;;;;-0.74;79.59;102832.34;4959556;28;20208;-74
2022/12/17 15:45:42;;;;;;;23.23;14.47;;;;;;;-0.84;79.46;102829.69;4958870;28;20229;-74
2022/12/17 15:48:08;;;;;;;24.43;14.33;;;;;;;-0.92;80.05;102827.19;4963157;28;20224;-74
2022/12/17 15:50:34;;;;;;;26.63;14.87;;;;;;;-0.94;81.13;102822.00;4969671;28;20915;-73
2022/12/17 15:53:00;;;;;;;24.53;14.60;;;;;;;-0.97;81.35;102825.81;4967099;28;20260;-73
2022/12/17 15:55:26;;;;;;;25.87;14.83;;;;;;;-1.09;80.68;102832.22;4968494;28;20560;-74
2022/12/17 15:57:51;;;;;;;25.27;14.07;;;;;;;-1.19;80.79;102837.09;4960612;28;20772;-74
2022/12/17 16:00:17;;;;;;;26.27;15.73;;;;;;;-1.21;80.93;102831.91;4969991;28;20203;-74
2022/12/17 16:02:44;;;;;;;28.20;16.50;;;;;;;-1.27;81.81;102835.44;4964813;28;20231;-76
2022/12/17 16:05:09;;;;;;;24.20;14.90;;;;;;;-1.38;81.29;102836.03;4962731;28;20220;-75
2022/12/17 16:07:36;;;;;;;25.93;14.87;;;;;;;-1.39;81.70;102840.16;4954698;28;20225;-74
2022/12/17 16:10:03;;;;;;;25.23;14.07;;;;;;;-1.43;82.07;102837.16;4961739;28;20207;-74
2022/12/17 16:12:28;;;;;;;24.67;15.07;;;;;;;-1.53;82.45;102844.53;4959304;28;20211;-74
2022/12/17 16:14:53;;;;;;;23.37;14.30;;;;;;;-1.64;82.40;102843.50;4967897;28;20271;-74
2022/12/17 16:17:19;;;;;;;25.13;14.60;;;;;;;-1.66;82.04;102844.09;4957772;28;20691;-73
2022/12/17 16:19:45;;;;;;;27.13;14.53;;;;;;;-1.69;82.60;102853.81;4959459;28;20255;-75
2022/12/17 16:22:10;;;;;;;27.07;15.33;;;;;;;-1.89;82.60;102845.91;4957105;28;20197;-73
2022/12/17 16:24:35;;;;;;;24.83;14.43;;;;;;;-1.83;83.47;102847.41;4961558;28;20229;-74
2022/12/17 16:27:01;;;;;;;21.97;14.57;;;;;;;-1.83;84.20;102852.41;4953930;28;20392;-74
2022/12/17 16:29:27;;;;;;;29.03;14.57;;;;;;;-1.89;84.19;102853.44;4956163;28;20201;-75
2022/12/17 16:31:52;;;;;;;24.63;14.70;;;;;;;-1.95;83.98;102853.72;4952222;28;20246;-74
2022/12/17 16:34:18;;;;;;;26.27;14.50;;;;;;;-1.99;83.80;102856.63;4958821;28;20189;-74
2022/12/17 16:36:43;;;;;;;25.23;15.17;;;;;;;-2.10;84.20;102856.28;4964212;28;20209;-73
2022/12/17 16:39:14;;;;;;;26.87;14.30;;;;;;;-2.17;84.13;102858.91;4954128;28;20295;-74
2022/12/17 16:41:40;;;;;;;26.43;16.20;;;;;;;-2.18;84.30;102860.53;4966543;28;20199;-75
2022/12/17 16:44:06;;;;;;;25.83;15.53;;;;;;;-2.20;84.49;102861.13;4926232;28;20449;-75
2022/12/17 16:46:37;;;;;;;22.33;14.83;;;;;;;-2.34;84.35;102867.22;4960053;28;20643;-76
2022/12/17 16:49:10;;;;;;;25.67;14.33;;;;;;;-2.34;84.06;102874.72;4967822;28;20682;-75
2022/12/17 16:51:35;;;;;;;27.57;15.30;;;;;;;-2.34;84.32;102863.84;4945724;28;20506;-75
2022/12/17 16:54:09;;;;;;;29.20;16.67;;;;;;;-2.46;84.69;102867.59;4968202;28;20197;-75
2022/12/17 16:56:35;;;;;;;36.23;17.63;;;;;;;-2.28;85.54;102862.84;4967198;28;20212;-75
2022/12/17 16:59:06;;;;;;;35.50;18.83;;;;;;;-2.16;84.40;102863.22;4961482;28;20505;-75
2022/12/17 17:01:32;;;;;;;31.40;18.63;;;;;;;-2.20;83.91;102866.13;4961682;28;20493;-75
2022/12/17 17:03:58;;;;;;;32.43;18.33;;;;;;;-2.32;83.00;102872.38;4966768;28;20490;-74
2022/12/17 17:06:24;;;;;;;32.33;17.60;;;;;;;-2.26;83.08;102865.53;4962344;28;20559;-75
2022/12/17 17:08:50;;;;;;;35.87;17.53;;;;;;;-2.24;83.16;102861.53;4958345;28;20984;-73
2022/12/17 17:11:23;;;;;;;36.57;17.83;;;;;;;-2.27;83.69;102866.22;4942449;28;20197;-74
2022/12/17 17:13:53;;;;;;;32.87;16.90;;;;;;;-2.34;84.07;102867.22;4961698;28;20285;-73
2022/12/17 17:16:20;;;;;;;28.30;16.17;;;;;;;-2.38;83.38;102866.75;4966345;28;20193;-73
2022/12/17 17:18:46;;;;;;;30.07;16.33;;;;;;;-2.48;83.56;102872.44;4966102;28;20204;-73
2022/12/17 17:21:23;;;;;;;28.03;16.57;;;;;;;-2.66;83.77;102874.66;4961360;28;20196;-75
2022/12/17 17:23:57;;;;;;;24.33;16.57;;;;;;;-2.82;84.75;102873.78;4966545;28;20495;-75
2022/12/17 17:26:23;;;;;;;34.03;17.93;;;;;;;-2.88;84.63;102880.69;4963771;28;20466;-74
2022/12/17 17:28:49;;;;;;;32.53;17.90;;;;;;;-3.00;84.39;102892.81;4961209;28;20448;-73
2022/12/17 17:31:15;;;;;;;27.83;17.37;;;;;;;-3.06;84.50;102883.75;4962617;28;20460;-73
2022/12/17 17:33:45;;;;;;;34.23;20.53;;;;;;;-3.14;84.24;102884.56;4962919;28;20209;-73
2022/12/17 17:36:26;;;;;;;34.57;21.97;;;;;;;-3.24;84.13;102894.31;4963902;28;20436;-73
2022/12/17 17:38:56;;;;;;;43.33;22.70;;;;;;;-3.30;84.27;102902.09;4949251;28;20448;-72
2022/12/17 17:41:24;;;;;;;38.93;24.37;;;;;;;-3.39;84.79;102893.59;4966583;28;20452;-74
2022/12/17 17:43:57;;;;;;;45.70;25.80;;;;;;;-3.42;84.33;102895.78;4965862;28;21043;-75
2022/12/17 17:46:24;;;;;;;43.97;25.80;;;;;;;-3.51;84.81;102906.41;4942082;28;21080;-74
2022/12/17 17:48:50;;;;;;;42.57;23.57;;;;;;;-3.55;84.84;102900.19;4964082;28;20518;-74
2022/12/17 17:51:22;;;;;;;38.10;22.30;;;;;;;-3.62;85.09;102902.78;4962784;28;20431;-74
2022/12/17 17:53:49;;;;;;;36.37;21.33;;;;;;;-3.65;85.24;102909.03;4948240;28;20542;-74
2022/12/17 17:56:24;;;;;;;36.67;21.83;;;;;;;-3.70;85.23;102917.66;4969339;28;20456;-75
2022/12/17 17:58:52;;;;;;;36.03;21.70;;;;;;;-3.70;84.92;102912.66;4967085;28;20435;-75
2022/12/17 18:01:26;;;;;;;33.53;20.60;;;;;;;-3.80;84.94;102919.88;4965501;28;20526;-75
2022/12/17 18:03:55;;;;;;;36.23;21.33;;;;;;;-3.84;85.49;102915.25;4964928;28;20457;-75
2022/12/17 18:06:20;;;;;;;35.07;21.77;;;;;;;-3.86;85.75;102920.09;4965268;28;20874;-75
2022/12/17 18:08:46;;;;;;;34.03;20.60;;;;;;;-3.91;86.23;102920.34;4964768;28;20436;-76
2022/12/17 18:11:15;;;;;;;34.37;21.90;;;;;;;-3.90;86.41;102927.13;4963794;28;20551;-75
2022/12/17 18:13:54;;;;;;;37.77;22.43;;;;;;;-3.92;86.25;102924.44;4965444;28;20219;-75
2022/12/17 18:16:31;;;;;;;36.10;22.50;;;;;;;-3.97;86.91;102937.16;4966117;28;21154;-75
2022/12/17 18:19:00;;;;;;;39.07;21.63;;;;;;;-4.05;86.90;102926.31;4962479;28;20476;-75
2022/12/17 18:21:27;;;;;;;37.87;21.20;;;;;;;-4.05;87.23;102930.44;4964723;28;20439;-75
2022/12/17 18:23:59;;;;;;;41.07;23.70;;;;;;;-4.06;87.66;102928.63;4964599;28;20447;-76
2022/12/17 18:26:26;;;;;;;42.07;22.80;;;;;;;-4.04;87.91;102925.63;4963234;28;20985;-75
2022/12/17 18:28:51;;;;;;;39.47;24.13;;;;;;;-4.03;88.53;102929.91;4962904;28;21193;-76
2022/12/17 18:31:20;;;;;;;37.20;23.00;;;;;;;-4.03;88.59;102931.50;4961396;28;20460;-75
2022/12/17 18:33:49;;;;;;;38.87;23.77;;;;;;;-4.08;89.02;102938.50;4946557;28;20601;-76
2022/12/17 18:36:20;;;;;;;40.03;23.90;;;;;;;-4.13;89.27;102948.72;4964239;28;20436;-76
2022/12/17 18:38:47;;;;;;;40.60;24.27;;;;;;;-4.22;89.18;102951.09;4962407;28;20502;-75
2022/12/17 18:44:04;;;;;;;40.50;22.77;;;;;;;-4.38;88.16;102945.09;4963103;28;20574;-75
2022/12/17 18:46:31;;;;;;;49.37;26.63;;;;;;;-4.34;88.30;102944.72;4932595;28;20498;-75
2022/12/17 18:49:08;;;;;;;67.80;30.50;;;;;;;-4.34;88.89;102949.72;4965394;28;20505;-73
2022/12/17 18:51:34;;;;;;;59.07;28.23;;;;;;;-4.34;89.21;102961.31;4963638;28;20530;-76
2022/12/17 18:54:02;;;;;;;54.70;27.40;;;;;;;-4.40;89.15;102964.03;4962552;28;20890;-76
2022/12/17 18:56:28;;;;;;;56.97;29.27;;;;;;;-4.43;88.33;102968.69;4962499;28;20448;-75
2022/12/17 18:58:55;;;;;;;50.70;28.10;;;;;;;-4.43;88.76;102970.28;4969112;28;20810;-75
2022/12/17 19:01:24;;;;;;;48.80;25.03;;;;;;;-4.38;89.32;102965.09;4947694;28;20486;-76
2022/12/17 19:03:51;;;;;;;47.17;24.87;;;;;;;-4.43;89.42;102980.28;4962850;28;20483;-73
2022/12/17 19:06:17;;;;;;;47.10;26.33;;;;;;;-4.55;89.45;102982.28;4966016;28;20491;-75
2022/12/17 19:08:43;;;;;;;46.33;24.97;;;;;;;-4.59;89.46;102984.28;4962330;28;20447;-76
2022/12/17 19:11:15;;;;;;;40.47;24.30;;;;;;;-4.58;88.78;102993.56;4958235;28;20444;-77
2022/12/17 19:13:40;;;;;;;44.33;25.13;;;;;;;-4.60;88.68;102987.50;4947366;28;20452;-76
2022/12/17 19:16:09;;;;;;;38.43;24.47;;;;;;;-4.71;88.57;102978.78;4959477;28;20475;-75
2022/12/17 19:18:36;;;;;;;42.97;24.93;;;;;;;-4.72;89.06;102982.00;4945657;28;20212;-75
2022/12/17 19:21:02;;;;;;;47.40;25.20;;;;;;;-4.68;89.30;102986.66;4960151;28;20447;-76
2022/12/17 19:23:28;;;;;;;38.50;23.67;;;;;;;-4.64;89.04;102985.38;4942235;28;20464;-77
2022/12/17 19:25:55;;;;;;;42.33;24.20;;;;;;;-4.74;89.72;102985.06;4964712;28;20234;-76
2022/12/17 19:28:20;;;;;;;43.27;24.87;;;;;;;-4.71;89.19;102988.78;4964060;28;20513;-77
2022/12/17 19:30:46;;;;;;;41.17;24.00;;;;;;;-4.82;89.19;102989.19;4966718;28;20444;-76
2022/12/17 19:33:11;;;;;;;44.90;26.17;;;;;;;-4.82;89.29;102989.19;4965231;28;20207;-76
2022/12/17 19:35:37;;;;;;;39.87;23.87;;;;;;;-4.91;89.25;102989.72;4969991;28;20287;-76
2022/12/17 19:38:02;;;;;;;39.17;24.13;;;;;;;-4.93;89.35;103003.66;4967646;28;20591;-77
2022/12/17 19:40:28;;;;;;;38.93;23.23;;;;;;;-4.97;89.24;103009.00;4961752;28;20196;-73
2022/12/17 19:42:56;;;;;;;40.27;23.60;;;;;;;-5.00;88.70;103008.66;4937721;28;20199;-75
2022/12/17 19:45:22;;;;;;;45.57;25.00;;;;;;;-5.01;88.66;103011.88;4964369;28;20223;-73
2022/12/17 19:47:48;;;;;;;41.63;23.80;;;;;;;-5.07;88.21;103009.53;4962866;28;20899;-75
2022/12/17 19:50:13;;;;;;;40.53;23.23;;;;;;;-5.11;87.84;103009.03;4963636;28;20197;-74
2022/12/17 19:52:39;;;;;;;43.23;24.17;;;;;;;-5.17;88.01;103015.78;4962418;28;20560;-73
2022/12/17 19:55:05;;;;;;;38.23;23.60;;;;;;;-5.17;87.17;103011.69;4964661;28;20231;-75
2022/12/17 19:57:33;;;;;;;41.60;22.93;;;;;;;-5.19;87.21;103017.22;4965135;28;20217;-73
2022/12/17 19:59:58;;;;;;;34.07;20.70;;;;;;;-5.30;87.47;103008.50;4961468;28;20195;-76
2022/12/17 20:02:23;;;;;;;41.60;22.97;;;;;;;-5.32;87.82;103012.44;4942863;28;20789;-74
2022/12/17 20:04:49;;;;;;;33.67;20.83;;;;;;;-5.28;88.28;103017.06;4960585;28;20705;-75
2022/12/17 20:07:15;;;;;;;36.57;23.13;;;;;;;-5.22;88.99;103017.78;4957855;28;20216;-73
2022/12/17 20:09:43;;;;;;;36.07;23.07;;;;;;;-5.25;89.16;103017.41;4962595;28;20809;-77
2022/12/17 20:12:09;;;;;;;36.67;22.50;;;;;;;-5.30;89.10;103011.00;4950247;28;20549;-75
2022/12/17 20:14:36;;;;;;;38.10;23.17;;;;;;;-5.28;89.47;103016.16;4930538;28;20990;-74
2022/12/17 20:17:03;;;;;;;40.10;23.43;;;;;;;-5.36;89.01;103011.88;4965627;28;20475;-73
2022/12/17 20:19:31;;;;;;;41.83;23.57;;;;;;;-5.38;89.34;103009.19;4946676;28;20452;-74
2022/12/17 20:22:01;;;;;;;44.13;24.03;;;;;;;-5.39;89.34;103014.03;4946958;28;20444;-74
2022/12/17 20:24:27;;;;;;;48.27;25.60;;;;;;;-5.45;89.38;103016.69;4962191;28;20456;-74
2022/12/17 20:26:53;;;;;;;49.40;26.97;;;;;;;-5.47;89.40;103015.66;4966728;28;20486;-75
2022/12/17 20:29:21;;;;;;;53.20;27.47;;;;;;;-5.44;89.44;103020.09;4965596;28;20577;-74
2022/12/17 20:31:47;;;;;;;48.07;25.03;;;;;;;-5.50;89.60;103029.34;4965580;28;20211;-74
2022/12/17 20:34:14;;;;;;;43.53;25.37;;;;;;;-5.52;89.88;103030.78;4963446;28;20551;-74
2022/12/17 20:36:40;;;;;;;47.73;25.40;;;;;;;-5.57;89.67;103027.72;4963271;28;20474;-73
2022/12/17 20:39:07;;;;;;;41.70;23.73;;;;;;;-5.50;89.44;103020.28;4960922;28;20448;-75
2022/12/17 20:41:35;;;;;;;42.50;23.47;;;;;;;-5.49;89.88;103022.03;4965234;28;20202;-75
2022/12/17 20:44:05;;;;;;;39.80;25.00;;;;;;;-5.55;90.27;103030.41;4965892;28;20452;-73
2022/12/17 20:46:32;;;;;;;40.50;23.00;;;;;;;-5.61;89.43;103029.69;4958933;28;20542;-74
2022/12/17 20:48:59;;;;;;;37.40;22.53;;;;;;;-5.70;89.52;103032.00;4967296;28;20459;-75
2022/12/17 20:51:26;;;;;;;39.87;22.63;;;;;;;-5.67;89.16;103027.38;4968743;28;20510;-76
2022/12/17 20:53:54;;;;;;;39.53;23.23;;;;;;;-5.61;89.70;103037.19;4966855;28;20466;-73
2022/12/17 20:56:23;;;;;;;39.97;22.87;;;;;;;-5.66;89.32;103030.75;4968644;28;20506;-74
2022/12/17 20:58:55;;;;;;;38.30;22.90;;;;;;;-5.73;89.65;103035.72;4966272;28;20452;-74
2022/12/17 21:01:23;;;;;;;39.33;22.40;;;;;;;-5.73;89.14;103031.66;4968234;28;20528;-75
2022/12/17 21:03:50;;;;;;;37.53;22.03;;;;;;;-5.66;89.38;103030.75;4952711;28;20442;-74
2022/12/17 21:06:17;;;;;;;39.50;22.03;;;;;;;-5.56;90.23;103028.63;4948894;28;20471;-74
2022/12/17 21:08:47;;;;;;;37.43;21.23;;;;;;;-5.60;91.29;103032.38;4971873;28;20471;-76
2022/12/17 21:11:13;;;;;;;34.33;20.23;;;;;;;-5.60;91.32;103037.38;4962877;28;20447;-74
2022/12/17 21:13:39;;;;;;;36.67;20.20;;;;;;;-5.67;90.97;103034.84;4964967;28;20511;-74
2022/12/17 21:16:17;;;;;;;38.50;21.13;;;;;;;-5.75;90.84;103039.66;4970211;28;20444;-77
2022/12/17 21:18:43;;;;;;;36.50;19.80;;;;;;;-5.78;90.59;103049.25;4964982;28;20634;-74
2022/12/17 21:21:12;;;;;;;32.97;20.50;;;;;;;-5.78;90.25;103046.75;4967439;28;20455;-75
2022/12/17 21:23:39;;;;;;;35.10;19.53;;;;;;;-5.86;89.86;103047.47;4966686;28;20191;-74
2022/12/17 21:26:26;;;;;;;35.83;20.00;;;;;;;-5.94;89.53;103044.06;4940245;28;20617;-73
2022/12/17 21:28:56;;;;;;;41.23;20.23;;;;;;;-5.99;89.45;103042.66;4969720;28;20436;-73
2022/12/17 21:31:34;;;;;;;36.13;20.43;;;;;;;-6.04;88.70;103050.31;4962358;28;20463;-73
2022/12/17 21:34:01;;;;;;;37.80;21.17;;;;;;;-6.05;88.58;103054.38;4962420;28;20443;-74
2022/12/17 21:36:29;;;;;;;40.47;21.23;;;;;;;-6.11;88.68;103066.13;4974435;28;20811;-72
2022/12/17 21:38:55;;;;;;;38.03;21.47;;;;;;;-6.10;88.62;103075.38;4965159;28;21091;-74
2022/12/17 21:41:23;;;;;;;36.17;20.80;;;;;;;-6.11;88.68;103088.56;4950158;28;20469;-74
2022/12/17 21:44:00;;;;;;;37.03;21.83;;;;;;;-6.11;88.66;103095.13;4965229;28;20250;-74
2022/12/17 21:46:27;;;;;;;37.57;21.10;;;;;;;-6.21;88.49;103092.22;4962253;28;20563;-73
2022/12/17 21:48:53;;;;;;;33.60;19.97;;;;;;;-6.19;88.73;103094.19;4963915;28;20451;-74
2022/12/17 21:51:19;;;;;;;34.70;19.60;;;;;;;-6.22;88.38;103101.28;4966662;28;20506;-73
2022/12/17 21:53:46;;;;;;;37.87;19.93;;;;;;;-6.24;88.67;103092.75;4964846;28;20440;-74
2022/12/17 21:56:14;;;;;;;36.33;18.83;;;;;;;-6.23;88.86;103092.03;4946055;28;20285;-73
2022/12/17 21:58:41;;;;;;;36.13;20.83;;;;;;;-6.22;89.34;103096.31;4968830;28;20503;-74
2022/12/17 22:01:22;;;;;;;40.20;21.77;;;;;;;-6.16;89.97;103088.69;4965780;28;20456;-74
2022/12/17 22:03:48;;;;;;;38.47;20.60;;;;;;;-6.11;89.87;103082.66;4967761;28;20461;-73
2022/12/17 22:06:16;;;;;;;38.73;20.70;;;;;;;-6.18;90.80;103076.03;4969728;28;20540;-73
2022/12/17 22:08:43;;;;;;;39.77;21.13;;;;;;;-6.21;90.21;103080.66;4968569;28;20987;-73
2022/12/17 22:11:20;;;;;;;40.77;21.07;;;;;;;-6.16;90.19;103083.72;4971002;28;20448;-74
2022/12/17 22:14:04;;;;;;;50.30;23.80;;;;;;;-6.15;90.48;103085.50;4966172;28;20450;-74
2022/12/17 22:16:37;;;;;;;35.67;19.50;;;;;;;-6.11;91.03;103087.66;4966764;28;20959;-72
2022/12/17 22:19:10;;;;;;;32.50;20.23;;;;;;;-6.16;90.77;103087.13;4964297;28;20932;-73
2022/12/17 22:21:38;;;;;;;33.73;20.13;;;;;;;-6.19;90.60;103094.19;4950198;28;20474;-74
2022/12/17 22:24:04;;;;;;;37.23;20.17;;;;;;;-6.24;90.60;103099.31;4945820;28;20455;-75
2022/12/17 22:26:30;;;;;;;39.20;19.83;;;;;;;-6.23;90.81;103109.47;4944660;28;20543;-75
2022/12/17 22:28:56;;;;;;;38.07;21.20;;;;;;;-6.24;91.01;103100.22;4933873;28;20451;-74
2022/12/17 22:34:08;;;;;;;37.13;20.10;;;;;;;-6.30;90.67;103108.56;4967459;28;20268;-74
2022/12/17 22:36:34;;;;;;;36.37;19.80;;;;;;;-6.34;90.33;103112.28;4963291;28;21043;-75
2022/12/17 22:39:06;;;;;;;42.33;20.07;;;;;;;-6.28;90.99;103102.16;4950504;28;20444;-74
2022/12/17 22:44:15;;;;;;;32.27;18.87;;;;;;;-6.36;91.14;103107.81;4965903;28;20960;-74
2022/12/17 22:46:41;;;;;;;30.83;18.67;;;;;;;-6.38;90.88;103105.16;4967299;28;20486;-74
2022/12/17 22:49:06;;;;;;;32.27;18.07;;;;;;;-6.43;90.77;103101.22;4951616;28;20204;-74
2022/12/17 22:51:32;;;;;;;34.07;18.97;;;;;;;-6.42;90.82;103107.97;4967708;28;20203;-74
2022/12/17 22:54:03;;;;;;;38.00;19.93;;;;;;;-6.42;90.77;103107.97;4969146;28;20202;-74
2022/12/17 22:56:29;;;;;;;34.87;18.20;;;;;;;-6.45;91.20;103111.69;4953079;28;20204;-74
2022/12/17 22:58:54;;;;;;;40.60;19.23;;;;;;;-6.44;91.12;103103.50;4968118;28;20978;-74
2022/12/17 23:01:20;;;;;;;41.13;21.20;;;;;;;-6.42;90.91;103102.06;4952420;28;20691;-73
2022/12/17 23:03:45;;;;;;;45.30;21.57;;;;;;;-6.41;90.61;103101.41;4951280;28;20204;-73
2022/12/17 23:06:17;;;;;;;40.50;20.20;;;;;;;-6.45;90.97;103102.59;4928854;28;20219;-74
2022/12/17 23:08:43;;;;;;;37.63;19.53;;;;;;;-6.53;90.55;103102.38;4932540;28;20286;-73
2022/12/17 23:11:11;;;;;;;32.83;19.73;;;;;;;-6.52;90.50;103097.59;4927595;28;20442;-74
2022/12/17 23:13:37;;;;;;;35.10;19.77;;;;;;;-6.51;90.69;103099.38;4969617;28;20462;-74
2022/12/17 23:16:03;;;;;;;37.07;20.17;;;;;;;-6.58;90.33;103105.91;4966239;28;20451;-74
2022/12/17 23:18:30;;;;;;;33.70;18.80;;;;;;;-6.64;90.17;103107.66;4963013;28;22055;-73
2022/12/17 23:20:55;;;;;;;33.40;18.80;;;;;;;-6.63;90.32;103106.94;4970043;28;20508;-75
2022/12/17 23:23:21;;;;;;;33.93;17.57;;;;;;;-6.66;90.15;103109.94;4965108;28;20458;-74
2022/12/17 23:25:47;;;;;;;32.97;18.30;;;;;;;-6.71;89.44;103110.09;4966548;28;20218;-72
2022/12/17 23:28:12;;;;;;;31.43;18.07;;;;;;;-6.76;89.76;103111.13;4963546;28;20723;-76
2022/12/17 23:30:38;;;;;;;33.20;18.73;;;;;;;-6.76;89.55;103106.13;4968201;28;20191;-76
2022/12/17 23:33:03;;;;;;;34.33;18.83;;;;;;;-6.79;89.52;103099.19;4950453;28;20207;-75
2022/12/17 23:35:29;;;;;;;29.13;18.27;;;;;;;-6.74;89.45;103094.75;4967125;28;20200;-71
2022/12/17 23:37:55;;;;;;;32.40;18.90;;;;;;;-6.79;89.24;103095.78;4968554;28;20590;-72
2022/12/17 23:40:21;;;;;;;33.33;19.83;;;;;;;-6.79;89.55;103099.19;4965886;28;20463;-77
2022/12/17 23:42:46;;;;;;;33.53;18.50;;;;;;;-6.82;89.62;103103.78;4968601;28;20257;-74
2022/12/17 23:45:12;;;;;;;29.80;17.70;;;;;;;-6.84;89.33;103104.28;4968110;28;20211;-76
2022/12/17 23:47:39;;;;;;;32.60;18.20;;;;;;;-6.91;89.37;103111.72;4968374;28;20295;-76
2022/12/17 23:50:07;;;;;;;31.30;17.87;;;;;;;-6.90;89.07;103109.44;4961705;28;20525;-72
2022/12/17 23:52:32;;;;;;;31.13;18.40;;;;;;;-6.93;89.13;103108.13;4957617;28;20451;-74
2022/12/17 23:54:58;;;;;;;30.57;17.10;;;;;;;-6.94;88.61;103103.88;4964724;28;20798;-74
2022/12/17 23:57:24;;;;;;;30.63;17.57;;;;;;;-6.94;89.53;103107.25;4967190;28;20788;-75
2022/12/17 23:59:49;;;;;;;32.53;18.70;;;;;;;-6.88;89.64;103114.56;4960537;28;20775;-74
